sensor_id;sensor_type;location;lat;lon;timestamp;pressure;altitude;pressure_sealevel;temperature;humidity
29371;BME280;16357;52.188;7.838;2023-02-10T00:01:13;102702.59;;;6.82;55.26
29371;BME280;16357;52.188;7.838;2023-02-10T00:03:40;102703.44;;;6.83;55.13
29371;BME280;16357;52.188;7.838;2023-02-10T00:06:07;102700.72;;;6.85;55.24
29371;BME280;16357;52.188;7.838;2023-02-10T00:08:35;102702.31;;;6.87;55.60
29371;BME280;16357;52.188;7.838;2023-02-10T00:11:07;102696.91;;;6.89;55.40
29371;BME280;16357;52.188;7.838;2023-02-10T00:13:37;102708.44;;;6.89;55.44
29371;BME280;16357;52.188;7.838;2023-02-10T00:16:05;102707.50;;;6.90;55.89
29371;BME280;16357;52.188;7.838;2023-02-10T00:18:32;102713.59;;;6.92;55.49
29371;BME280;16357;52.188;7.838;2023-02-10T00:21:13;102710.88;;;6.94;55.69
29371;BME280;16357;52.188;7.838;2023-02-10T00:23:40;102713.47;;;6.95;55.72
29371;BME280;16357;52.188;7.838;2023-02-10T00:26:10;102699.16;;;6.96;55.97
29371;BME280;16357;52.188;7.838;2023-02-10T00:28:37;102720.50;;;6.96;56.06
29371;BME280;16357;52.188;7.838;2023-02-10T00:31:13;102725.78;;;6.98;55.79
29371;BME280;16357;52.188;7.838;2023-02-10T00:33:40;102720.34;;;6.99;56.21
29371;BME280;16357;52.188;7.838;2023-02-10T00:36:09;102720.34;;;6.99;55.89
29371;BME280;16357;52.188;7.838;2023-02-10T00:38:37;102717.66;;;6.99;56.47
29371;BME280;16357;52.188;7.838;2023-02-10T00:41:05;102712.25;;;7.01;56.00
29371;BME280;16357;52.188;7.838;2023-02-10T00:43:32;102720.25;;;7.01;56.07
29371;BME280;16357;52.188;7.838;2023-02-10T00:45:59;102720.25;;;7.01;56.38
29371;BME280;16357;52.188;7.838;2023-02-10T00:48:26;102721.13;;;7.01;56.27
29371;BME280;16357;52.188;7.838;2023-02-10T00:50:52;102728.28;;;7.01;56.87
29371;BME280;16357;52.188;7.838;2023-02-10T00:53:19;102725.50;;;7.02;56.88
29371;BME280;16357;52.188;7.838;2023-02-10T00:55:46;102724.75;;;7.00;56.78
29371;BME280;16357;52.188;7.838;2023-02-10T00:58:13;102730.09;;;7.00;56.91
29371;BME280;16357;52.188;7.838;2023-02-10T01:00:39;102727.41;;;7.00;56.80
29371;BME280;16357;52.188;7.838;2023-02-10T01:03:06;102734.53;;;7.00;56.72
29371;BME280;16357;52.188;7.838;2023-02-10T01:05:32;102739.00;;;6.99;56.80
29371;BME280;16357;52.188;7.838;2023-02-10T01:07:59;102741.69;;;6.99;57.15
29371;BME280;16357;52.188;7.838;2023-02-10T01:10:25;102740.81;;;6.99;56.99
29371;BME280;16357;52.188;7.838;2023-02-10T01:12:52;102744.44;;;6.98;56.76
29371;BME280;16357;52.188;7.838;2023-02-10T01:15:18;102749.78;;;6.98;57.24
29371;BME280;16357;52.188;7.838;2023-02-10T01:17:45;102755.13;;;6.98;56.93
29371;BME280;16357;52.188;7.838;2023-02-10T01:20:11;102756.91;;;6.97;57.04
29371;BME280;16357;52.188;7.838;2023-02-10T01:22:38;102755.19;;;6.96;57.19
29371;BME280;16357;52.188;7.838;2023-02-10T01:25:04;102751.66;;;6.96;57.32
29371;BME280;16357;52.188;7.838;2023-02-10T01:27:31;102754.41;;;6.94;57.40
29371;BME280;16357;52.188;7.838;2023-02-10T01:29:58;102746.50;;;6.93;57.28
29371;BME280;16357;52.188;7.838;2023-02-10T01:32:24;102753.63;;;6.92;57.04
29371;BME280;16357;52.188;7.838;2023-02-10T01:34:51;102748.38;;;6.91;57.12
29371;BME280;16357;52.188;7.838;2023-02-10T01:37:17;102751.13;;;6.89;57.05
29371;BME280;16357;52.188;7.838;2023-02-10T01:39:44;102745.09;;;6.86;57.25
29371;BME280;16357;52.188;7.838;2023-02-10T01:42:13;102755.84;;;6.84;56.97
29371;BME280;16357;52.188;7.838;2023-02-10T01:47:08;102752.56;;;6.79;56.74
29371;BME280;16357;52.188;7.838;2023-02-10T01:49:39;102748.34;;;6.75;57.11
29371;BME280;16357;52.188;7.838;2023-02-10T01:52:12;102744.91;;;6.73;56.45
29371;BME280;16357;52.188;7.838;2023-02-10T01:54:47;102747.72;;;6.70;56.53
29371;BME280;16357;52.188;7.838;2023-02-10T01:57:16;102748.06;;;6.64;56.71
29371;BME280;16357;52.188;7.838;2023-02-10T01:59:44;102750.13;;;6.58;56.75
29371;BME280;16357;52.188;7.838;2023-02-10T02:02:12;102749.56;;;6.52;56.70
29371;BME280;16357;52.188;7.838;2023-02-10T02:04:59;102759.69;;;6.45;56.51
29371;BME280;16357;52.188;7.838;2023-02-10T02:07:28;102752.00;;;6.39;56.49
29371;BME280;16357;52.188;7.838;2023-02-10T02:09:59;102750.75;;;6.29;56.92
29371;BME280;16357;52.188;7.838;2023-02-10T02:12:45;102756.41;;;6.23;56.74
29371;BME280;16357;52.188;7.838;2023-02-10T02:15:27;102759.56;;;6.13;56.83
29371;BME280;16357;52.188;7.838;2023-02-10T02:18:01;102769.72;;;6.05;57.08
29371;BME280;16357;52.188;7.838;2023-02-10T02:23:38;102782.03;;;5.89;57.10
29371;BME280;16357;52.188;7.838;2023-02-10T02:34:42;102782.03;;;5.53;57.77
29371;BME280;16357;52.188;7.838;2023-02-10T02:37:16;102776.16;;;5.46;57.67
29371;BME280;16357;52.188;7.838;2023-02-10T02:39:43;102776.56;;;5.37;57.48
29371;BME280;16357;52.188;7.838;2023-02-10T02:42:19;102768.88;;;5.31;57.48
29371;BME280;16357;52.188;7.838;2023-02-10T02:44:50;102773.69;;;5.22;57.85
29371;BME280;16357;52.188;7.838;2023-02-10T02:47:42;102777.56;;;5.15;57.96
29371;BME280;16357;52.188;7.838;2023-02-10T02:50:23;102768.13;;;5.08;57.73
29371;BME280;16357;52.188;7.838;2023-02-10T02:55:34;102763.47;;;4.94;57.85
29371;BME280;16357;52.188;7.838;2023-02-10T02:58:27;102767.34;;;4.87;58.44
29371;BME280;16357;52.188;7.838;2023-02-10T03:01:00;102764.03;;;4.82;58.59
29371;BME280;16357;52.188;7.838;2023-02-10T03:03:32;102767.81;;;4.76;58.84
29371;BME280;16357;52.188;7.838;2023-02-10T03:06:00;102764.44;;;4.73;59.19
29371;BME280;16357;52.188;7.838;2023-02-10T03:08:28;102762.78;;;4.70;58.95
29371;BME280;16357;52.188;7.838;2023-02-10T03:10:55;102762.91;;;4.67;59.50
29371;BME280;16357;52.188;7.838;2023-02-10T03:13:22;102764.78;;;4.65;59.21
29371;BME280;16357;52.188;7.838;2023-02-10T03:15:49;102763.91;;;4.65;59.65
29371;BME280;16357;52.188;7.838;2023-02-10T03:18:16;102766.63;;;4.63;59.68
29371;BME280;16357;52.188;7.838;2023-02-10T03:20:43;102755.09;;;4.64;59.67
29371;BME280;16357;52.188;7.838;2023-02-10T03:23:10;102768.38;;;4.64;59.88
29371;BME280;16357;52.188;7.838;2023-02-10T03:25:37;102770.19;;;4.64;59.74
29371;BME280;16357;52.188;7.838;2023-02-10T03:28:04;102764.84;;;4.64;59.75
29371;BME280;16357;52.188;7.838;2023-02-10T03:30:32;102765.63;;;4.66;59.45
29371;BME280;16357;52.188;7.838;2023-02-10T03:32:59;102765.72;;;4.64;59.90
29371;BME280;16357;52.188;7.838;2023-02-10T03:35:25;102760.31;;;4.66;59.76
29371;BME280;16357;52.188;7.838;2023-02-10T03:37:52;102760.31;;;4.66;60.00
29371;BME280;16357;52.188;7.838;2023-02-10T03:40:18;102753.22;;;4.66;59.96
29371;BME280;16357;52.188;7.838;2023-02-10T03:42:45;102760.25;;;4.67;59.64
29371;BME280;16357;52.188;7.838;2023-02-10T03:45:11;102762.91;;;4.67;59.82
29371;BME280;16357;52.188;7.838;2023-02-10T03:47:38;102761.19;;;4.66;59.54
29371;BME280;16357;52.188;7.838;2023-02-10T03:50:05;102771.88;;;4.65;59.86
29371;BME280;16357;52.188;7.838;2023-02-10T03:52:31;102767.44;;;4.65;60.04
29371;BME280;16357;52.188;7.838;2023-02-10T03:54:57;102763.06;;;4.64;59.64
29371;BME280;16357;52.188;7.838;2023-02-10T03:57:24;102768.38;;;4.64;59.61
29371;BME280;16357;52.188;7.838;2023-02-10T03:59:51;102767.56;;;4.62;59.75
29371;BME280;16357;52.188;7.838;2023-02-10T04:02:17;102783.53;;;4.62;60.09
29371;BME280;16357;52.188;7.838;2023-02-10T04:04:44;102789.69;;;4.62;60.24
29371;BME280;16357;52.188;7.838;2023-02-10T04:07:10;102787.88;;;4.63;60.71
29371;BME280;16357;52.188;7.838;2023-02-10T04:09:37;102780.81;;;4.64;60.41
29371;BME280;16357;52.188;7.838;2023-02-10T04:12:04;102786.97;;;4.64;60.47
29371;BME280;16357;52.188;7.838;2023-02-10T04:14:30;102778.00;;;4.67;61.12
29371;BME280;16357;52.188;7.838;2023-02-10T04:16:57;102785.84;;;4.70;60.57
29371;BME280;16357;52.188;7.838;2023-02-10T04:19:23;102798.13;;;4.72;60.72
29371;BME280;16357;52.188;7.838;2023-02-10T04:21:49;102795.41;;;4.74;60.74
29371;BME280;16357;52.188;7.838;2023-02-10T04:24:16;102791.72;;;4.76;60.42
29371;BME280;16357;52.188;7.838;2023-02-10T04:26:42;102789.88;;;4.78;60.41
29371;BME280;16357;52.188;7.838;2023-02-10T04:29:09;102781.84;;;4.80;60.53
29371;BME280;16357;52.188;7.838;2023-02-10T04:31:35;102777.38;;;4.80;60.44
29371;BME280;16357;52.188;7.838;2023-02-10T04:34:02;102778.25;;;4.81;60.83
29371;BME280;16357;52.188;7.838;2023-02-10T04:36:29;102782.69;;;4.80;60.30
29371;BME280;16357;52.188;7.838;2023-02-10T04:38:55;102788.03;;;4.80;60.66
29371;BME280;16357;52.188;7.838;2023-02-10T04:41:22;102789.81;;;4.80;60.36
29371;BME280;16357;52.188;7.838;2023-02-10T04:43:48;102780.09;;;4.79;60.57
29371;BME280;16357;52.188;7.838;2023-02-10T04:46:15;102780.19;;;4.77;60.34
29371;BME280;16357;52.188;7.838;2023-02-10T04:48:42;102786.41;;;4.76;60.38
29371;BME280;16357;52.188;7.838;2023-02-10T04:51:09;102784.69;;;4.75;60.30
29371;BME280;16357;52.188;7.838;2023-02-10T04:53:37;102781.25;;;4.73;60.22
29371;BME280;16357;52.188;7.838;2023-02-10T04:56:04;102777.78;;;4.71;60.39
29371;BME280;16357;52.188;7.838;2023-02-10T04:58:31;102780.44;;;4.71;60.38
29371;BME280;16357;52.188;7.838;2023-02-10T05:00:58;102776.06;;;4.70;60.57
29371;BME280;16357;52.188;7.838;2023-02-10T05:03:25;102780.53;;;4.70;60.57
29371;BME280;16357;52.188;7.838;2023-02-10T05:05:51;102785.91;;;4.68;60.37
29371;BME280;16357;52.188;7.838;2023-02-10T05:08:19;102792.09;;;4.69;60.33
29371;BME280;16357;52.188;7.838;2023-02-10T05:10:51;102795.63;;;4.69;60.51
29371;BME280;16357;52.188;7.838;2023-02-10T05:13:18;102798.28;;;4.69;60.72
29371;BME280;16357;52.188;7.838;2023-02-10T05:15:46;102807.97;;;4.70;60.87
29371;BME280;16357;52.188;7.838;2023-02-10T05:18:13;102817.59;;;4.73;60.73
29371;BME280;16357;52.188;7.838;2023-02-10T05:20:39;102813.16;;;4.73;60.96
29371;BME280;16357;52.188;7.838;2023-02-10T05:23:06;102816.59;;;4.75;61.01
29371;BME280;16357;52.188;7.838;2023-02-10T05:25:32;102811.16;;;4.78;61.34
29371;BME280;16357;52.188;7.838;2023-02-10T05:27:59;102814.63;;;4.80;61.42
29371;BME280;16357;52.188;7.838;2023-02-10T05:30:25;102816.28;;;4.83;61.31
29371;BME280;16357;52.188;7.838;2023-02-10T05:32:52;102817.94;;;4.86;60.94
29371;BME280;16357;52.188;7.838;2023-02-10T05:35:18;102819.59;;;4.88;61.37
29371;BME280;16357;52.188;7.838;2023-02-10T05:37:44;102829.22;;;4.91;61.22
29371;BME280;16357;52.188;7.838;2023-02-10T05:40:11;102830.03;;;4.93;61.16
29371;BME280;16357;52.188;7.838;2023-02-10T05:42:37;102836.06;;;4.96;61.31
29371;BME280;16357;52.188;7.838;2023-02-10T05:45:04;102834.22;;;4.98;61.13
29371;BME280;16357;52.188;7.838;2023-02-10T05:47:31;102829.75;;;4.99;61.20
29371;BME280;16357;52.188;7.838;2023-02-10T05:49:57;102828.03;;;4.98;61.23
29371;BME280;16357;52.188;7.838;2023-02-10T05:52:23;102833.34;;;4.98;61.30
29371;BME280;16357;52.188;7.838;2023-02-10T05:54:50;102832.47;;;4.97;61.02
29371;BME280;16357;52.188;7.838;2023-02-10T05:57:16;102836.94;;;4.97;61.53
29371;BME280;16357;52.188;7.838;2023-02-10T05:59:43;102844.09;;;4.95;61.13
29371;BME280;16357;52.188;7.838;2023-02-10T06:02:09;102848.56;;;4.94;61.53
29371;BME280;16357;52.188;7.838;2023-02-10T06:04:36;102848.66;;;4.93;61.17
29371;BME280;16357;52.188;7.838;2023-02-10T06:07:02;102854.88;;;4.92;61.46
29371;BME280;16357;52.188;7.838;2023-02-10T06:09:30;102853.16;;;4.91;61.66
29371;BME280;16357;52.188;7.838;2023-02-10T06:11:56;102849.72;;;4.89;61.80
29371;BME280;16357;52.188;7.838;2023-02-10T06:14:23;102855.03;;;4.89;61.51
29371;BME280;16357;52.188;7.838;2023-02-10T06:16:49;102855.97;;;4.88;61.60
29371;BME280;16357;52.188;7.838;2023-02-10T06:19:16;102858.63;;;4.88;61.97
29371;BME280;16357;52.188;7.838;2023-02-10T06:21:45;102858.63;;;4.88;61.90
29371;BME280;16357;52.188;7.838;2023-02-10T06:24:12;102863.09;;;4.87;61.69
29371;BME280;16357;52.188;7.838;2023-02-10T06:26:38;102857.78;;;4.87;62.10
29371;BME280;16357;52.188;7.838;2023-02-10T06:29:05;102866.53;;;4.89;61.99
29371;BME280;16357;52.188;7.838;2023-02-10T06:31:32;102863.81;;;4.91;61.97
29371;BME280;16357;52.188;7.838;2023-02-10T06:33:59;102870.84;;;4.92;61.90
29371;BME280;16357;52.188;7.838;2023-02-10T06:36:25;102871.66;;;4.94;62.03
29371;BME280;16357;52.188;7.838;2023-02-10T06:38:52;102872.44;;;4.96;61.94
29371;BME280;16357;52.188;7.838;2023-02-10T06:41:18;102867.13;;;4.96;62.13
29371;BME280;16357;52.188;7.838;2023-02-10T06:43:45;102866.13;;;4.98;62.27
29371;BME280;16357;52.188;7.838;2023-02-10T06:46:11;102868.72;;;5.00;62.32
29371;BME280;16357;52.188;7.838;2023-02-10T06:48:39;102866.00;;;5.01;61.91
29371;BME280;16357;52.188;7.838;2023-02-10T06:51:05;102865.03;;;5.02;61.83
29371;BME280;16357;52.188;7.838;2023-02-10T06:53:32;102866.78;;;5.03;62.02
29371;BME280;16357;52.188;7.838;2023-02-10T06:55:58;102870.25;;;5.05;62.32
29371;BME280;16357;52.188;7.838;2023-02-10T06:58:25;102865.00;;;5.04;62.37
29371;BME280;16357;52.188;7.838;2023-02-10T07:00:51;102870.31;;;5.04;62.13
29371;BME280;16357;52.188;7.838;2023-02-10T07:03:18;102866.72;;;5.05;62.39
29371;BME280;16357;52.188;7.838;2023-02-10T07:05:44;102860.47;;;5.06;62.26
29371;BME280;16357;52.188;7.838;2023-02-10T07:08:11;102860.38;;;5.07;62.37
29371;BME280;16357;52.188;7.838;2023-02-10T07:10:38;102864.78;;;5.09;62.61
29371;BME280;16357;52.188;7.838;2023-02-10T07:13:05;102860.34;;;5.09;62.47
29371;BME280;16357;52.188;7.838;2023-02-10T07:15:31;102870.84;;;5.12;62.53
29371;BME280;16357;52.188;7.838;2023-02-10T07:17:58;102873.44;;;5.14;62.61
29371;BME280;16357;52.188;7.838;2023-02-10T07:20:25;102877.81;;;5.15;62.70
29371;BME280;16357;52.188;7.838;2023-02-10T07:22:52;102873.28;;;5.17;62.42
29371;BME280;16357;52.188;7.838;2023-02-10T07:25:18;102877.63;;;5.19;62.59
29371;BME280;16357;52.188;7.838;2023-02-10T07:27:45;102887.25;;;5.22;62.55
29371;BME280;16357;52.188;7.838;2023-02-10T07:30:12;102884.38;;;5.26;62.80
29371;BME280;16357;52.188;7.838;2023-02-10T07:32:38;102878.03;;;5.29;62.77
29371;BME280;16357;52.188;7.838;2023-02-10T07:35:08;102890.34;;;5.32;62.43
29371;BME280;16357;52.188;7.838;2023-02-10T07:37:35;102878.66;;;5.36;62.60
29371;BME280;16357;52.188;7.838;2023-02-10T07:40:02;102890.00;;;5.39;62.94
29371;BME280;16357;52.188;7.838;2023-02-10T07:42:29;102881.88;;;5.42;62.63
29371;BME280;16357;52.188;7.838;2023-02-10T07:44:55;102885.28;;;5.46;62.73
29371;BME280;16357;52.188;7.838;2023-02-10T07:47:22;102887.78;;;5.49;62.17
29371;BME280;16357;52.188;7.838;2023-02-10T07:49:48;102893.84;;;5.53;62.51
29371;BME280;16357;52.188;7.838;2023-02-10T07:52:15;102889.25;;;5.56;62.43
29371;BME280;16357;52.188;7.838;2023-02-10T07:54:41;102893.56;;;5.59;62.06
29371;BME280;16357;52.188;7.838;2023-02-10T07:57:08;102891.63;;;5.62;62.22
29371;BME280;16357;52.188;7.838;2023-02-10T07:59:34;102888.81;;;5.65;62.68
29371;BME280;16357;52.188;7.838;2023-02-10T08:02:01;102888.66;;;5.68;62.40
29371;BME280;16357;52.188;7.838;2023-02-10T08:04:30;102892.91;;;5.72;62.23
29371;BME280;16357;52.188;7.838;2023-02-10T08:06:57;102891.84;;;5.77;62.60
29371;BME280;16357;52.188;7.838;2023-02-10T08:09:23;102898.75;;;5.81;62.23
29371;BME280;16357;52.188;7.838;2023-02-10T08:11:49;102895.06;;;5.83;62.38
29371;BME280;16357;52.188;7.838;2023-02-10T08:14:16;102899.34;;;5.87;62.29
29371;BME280;16357;52.188;7.838;2023-02-10T08:16:42;102900.03;;;5.91;62.36
29371;BME280;16357;52.188;7.838;2023-02-10T08:19:09;102895.47;;;5.94;62.32
29371;BME280;16357;52.188;7.838;2023-02-10T08:21:35;102905.97;;;5.98;62.64
29371;BME280;16357;52.188;7.838;2023-02-10T08:24:02;102906.69;;;6.01;62.62
29371;BME280;16357;52.188;7.838;2023-02-10T08:26:28;102911.88;;;6.04;62.58
29371;BME280;16357;52.188;7.838;2023-02-10T08:28:55;102903.72;;;6.07;62.25
29371;BME280;16357;52.188;7.838;2023-02-10T08:31:24;102896.47;;;6.11;61.86
29371;BME280;16357;52.188;7.838;2023-02-10T08:33:51;102902.56;;;6.13;62.33
29371;BME280;16357;52.188;7.838;2023-02-10T08:36:19;102905.16;;;6.14;61.87
29371;BME280;16357;52.188;7.838;2023-02-10T08:38:48;102902.50;;;6.14;62.19
29371;BME280;16357;52.188;7.838;2023-02-10T08:41:15;102911.28;;;6.17;61.85
29371;BME280;16357;52.188;7.838;2023-02-10T08:43:42;102916.63;;;6.17;61.82
29371;BME280;16357;52.188;7.838;2023-02-10T08:46:09;102917.47;;;6.17;61.99
29371;BME280;16357;52.188;7.838;2023-02-10T08:48:36;102921.00;;;6.18;62.05
29371;BME280;16357;52.188;7.838;2023-02-10T08:51:07;102925.38;;;6.19;62.10
29371;BME280;16357;52.188;7.838;2023-02-10T08:53:34;102928.06;;;6.19;62.14
29371;BME280;16357;52.188;7.838;2023-02-10T08:56:08;102933.25;;;6.22;62.25
29371;BME280;16357;52.188;7.838;2023-02-10T08:58:35;102939.44;;;6.22;62.11
29371;BME280;16357;52.188;7.838;2023-02-10T09:01:11;102940.25;;;6.24;61.72
29371;BME280;16357;52.188;7.838;2023-02-10T09:03:38;102936.69;;;6.24;62.19
29371;BME280;16357;52.188;7.838;2023-02-10T09:06:05;102941.97;;;6.25;62.24
29371;BME280;16357;52.188;7.838;2023-02-10T09:08:32;102940.09;;;6.27;62.45
29371;BME280;16357;52.188;7.838;2023-02-10T09:10:58;102941.81;;;6.28;62.39
29371;BME280;16357;52.188;7.838;2023-02-10T09:13:25;102936.31;;;6.31;62.24
29371;BME280;16357;52.188;7.838;2023-02-10T09:15:51;102942.44;;;6.33;62.22
29371;BME280;16357;52.188;7.838;2023-02-10T09:18:18;102935.16;;;6.37;62.25
29371;BME280;16357;52.188;7.838;2023-02-10T09:20:44;102930.56;;;6.41;61.92
29371;BME280;16357;52.188;7.838;2023-02-10T09:23:11;102925.06;;;6.44;61.96
29371;BME280;16357;52.188;7.838;2023-02-10T09:25:37;102927.66;;;6.45;61.96
29371;BME280;16357;52.188;7.838;2023-02-10T09:28:12;102929.22;;;6.49;61.60
29371;BME280;16357;52.188;7.838;2023-02-10T09:30:39;102934.50;;;6.51;61.69
29371;BME280;16357;52.188;7.838;2023-02-10T09:33:05;102933.56;;;6.52;61.51
29371;BME280;16357;52.188;7.838;2023-02-10T09:35:32;102932.53;;;6.54;61.57
29371;BME280;16357;52.188;7.838;2023-02-10T09:37:58;102924.53;;;6.54;61.64
29371;BME280;16357;52.188;7.838;2023-02-10T09:40:29;102929.81;;;6.56;61.54
29371;BME280;16357;52.188;7.838;2023-02-10T09:45:26;102927.69;;;6.63;61.68
29371;BME280;16357;52.188;7.838;2023-02-10T09:53:49;102930.59;;;6.75;61.48
29371;BME280;16357;52.188;7.838;2023-02-10T09:56:20;102931.28;;;6.79;61.57
29371;BME280;16357;52.188;7.838;2023-02-10T09:58:57;102939.06;;;6.84;61.08
29371;BME280;16357;52.188;7.838;2023-02-10T10:01:24;102942.44;;;6.87;61.14
29371;BME280;16357;52.188;7.838;2023-02-10T10:06:29;102946.38;;;6.97;61.38
29371;BME280;16357;52.188;7.838;2023-02-10T10:28:39;102950.25;;;7.76;59.94
29371;BME280;16357;52.188;7.838;2023-02-10T10:31:13;102947.16;;;7.83;59.95
29371;BME280;16357;52.188;7.838;2023-02-10T10:36:21;102939.50;;;7.93;59.49
29371;BME280;16357;52.188;7.838;2023-02-10T10:38:57;102942.00;;;7.96;59.26
29371;BME280;16357;52.188;7.838;2023-02-10T10:41:29;102934.84;;;7.97;59.46
29371;BME280;16357;52.188;7.838;2023-02-10T10:43:57;102934.00;;;7.96;58.89
29371;BME280;16357;52.188;7.838;2023-02-10T10:49:08;102927.78;;;7.96;59.14
29371;BME280;16357;52.188;7.838;2023-02-10T10:51:35;102920.63;;;7.96;59.22
29371;BME280;16357;52.188;7.838;2023-02-10T10:54:04;102918.81;;;7.97;59.37
29371;BME280;16357;52.188;7.838;2023-02-10T10:59:20;102910.78;;;7.97;59.04
29371;BME280;16357;52.188;7.838;2023-02-10T11:01:48;102905.53;;;7.95;58.40
29371;BME280;16357;52.188;7.838;2023-02-10T11:04:25;102902.94;;;7.94;58.71
29371;BME280;16357;52.188;7.838;2023-02-10T11:06:55;102895.97;;;7.91;58.58
29371;BME280;16357;52.188;7.838;2023-02-10T11:09:26;102904.94;;;7.90;58.57
29371;BME280;16357;52.188;7.838;2023-02-10T11:12:02;102898.72;;;7.89;58.91
29371;BME280;16357;52.188;7.838;2023-02-10T11:14:37;102895.09;;;7.90;59.17
29371;BME280;16357;52.188;7.838;2023-02-10T11:17:18;102885.28;;;7.91;59.41
29371;BME280;16357;52.188;7.838;2023-02-10T11:19:57;102883.28;;;7.95;59.44
29371;BME280;16357;52.188;7.838;2023-02-10T11:22:24;102878.72;;;7.97;59.71
29371;BME280;16357;52.188;7.838;2023-02-10T11:24:57;102881.03;;;8.03;59.68
29371;BME280;16357;52.188;7.838;2023-02-10T11:27:24;102878.09;;;8.07;58.83
29371;BME280;16357;52.188;7.838;2023-02-10T11:29:53;102872.50;;;8.12;59.42
29371;BME280;16357;52.188;7.838;2023-02-10T11:32:26;102879.22;;;8.19;59.37
29371;BME280;16357;52.188;7.838;2023-02-10T11:34:59;102871.69;;;8.26;59.25
29371;BME280;16357;52.188;7.838;2023-02-10T11:37:32;102873.16;;;8.31;58.74
29371;BME280;16357;52.188;7.838;2023-02-10T11:40:01;102878.09;;;8.39;58.84
29371;BME280;16357;52.188;7.838;2023-02-10T11:42:31;102871.44;;;8.46;59.17
29371;BME280;16357;52.188;7.838;2023-02-10T11:45:02;102861.94;;;8.56;58.43
29371;BME280;16357;52.188;7.838;2023-02-10T11:47:31;102864.16;;;8.64;58.44
29371;BME280;16357;52.188;7.838;2023-02-10T11:49:58;102853.84;;;8.72;58.11
29371;BME280;16357;52.188;7.838;2023-02-10T11:52:27;102853.38;;;8.80;57.58
29371;BME280;16357;52.188;7.838;2023-02-10T11:54:56;102848.63;;;8.85;57.30
29371;BME280;16357;52.188;7.838;2023-02-10T11:57:48;102848.22;;;8.91;57.40
29371;BME280;16357;52.188;7.838;2023-02-10T12:00:58;102842.59;;;8.96;57.00
29371;BME280;16357;52.188;7.838;2023-02-10T12:03:49;102840.69;;;8.98;56.67
29371;BME280;16357;52.188;7.838;2023-02-10T12:06:25;102840.59;;;8.99;56.35
29371;BME280;16357;52.188;7.838;2023-02-10T12:12:22;102831.63;;;9.00;56.71
29371;BME280;16357;52.188;7.838;2023-02-10T12:17:27;102824.06;;;9.07;57.00
29371;BME280;16357;52.188;7.838;2023-02-10T12:34:05;102803.84;;;9.59;55.56
29371;BME280;16357;52.188;7.838;2023-02-10T12:36:52;102802.38;;;9.67;55.39
29371;BME280;16357;52.188;7.838;2023-02-10T12:47:46;102798.25;;;10.03;54.34
29371;BME280;16357;52.188;7.838;2023-02-10T12:53:08;102797.19;;;10.19;54.30
29371;BME280;16357;52.188;7.838;2023-02-10T12:58:20;102786.44;;;10.33;53.63
29371;BME280;16357;52.188;7.838;2023-02-10T13:03:39;102783.00;;;10.44;53.52
29371;BME280;16357;52.188;7.838;2023-02-10T13:06:30;102787.09;;;10.49;52.94
29371;BME280;16357;52.188;7.838;2023-02-10T13:09:04;102778.81;;;10.52;52.56
29371;BME280;16357;52.188;7.838;2023-02-10T13:11:43;102787.63;;;10.54;51.97
29371;BME280;16357;52.188;7.838;2023-02-10T13:14:16;102776.91;;;10.54;52.13
29371;BME280;16357;52.188;7.838;2023-02-10T13:16:54;102770.69;;;10.54;52.08
29371;BME280;16357;52.188;7.838;2023-02-10T13:30:48;102741.91;;;10.56;51.82
29371;BME280;16357;52.188;7.838;2023-02-10T13:36:25;102741.25;;;10.65;51.34
29371;BME280;16357;52.188;7.838;2023-02-10T13:39:23;102739.97;;;10.71;51.41
29371;BME280;16357;52.188;7.838;2023-02-10T13:45:04;102738.56;;;10.78;51.16
29371;BME280;16357;52.188;7.838;2023-02-10T13:47:42;102733.97;;;10.80;50.59
29371;BME280;16357;52.188;7.838;2023-02-10T13:57:56;102723.53;;;10.88;50.20
29371;BME280;16357;52.188;7.838;2023-02-10T14:00:26;102721.59;;;10.90;49.91
29371;BME280;16357;52.188;7.838;2023-02-10T14:03:00;102726.97;;;10.90;50.22
29371;BME280;16357;52.188;7.838;2023-02-10T14:05:33;102726.84;;;10.92;50.19
29371;BME280;16357;52.188;7.838;2023-02-10T14:08:13;102726.75;;;10.93;49.66
29371;BME280;16357;52.188;7.838;2023-02-10T14:10:41;102726.63;;;10.95;49.38
29371;BME280;16357;52.188;7.838;2023-02-10T14:13:22;102715.78;;;10.96;49.64
29371;BME280;16357;52.188;7.838;2023-02-10T14:15:59;102714.78;;;10.97;49.35
29371;BME280;16357;52.188;7.838;2023-02-10T14:18:34;102714.59;;;11.01;49.24
29371;BME280;16357;52.188;7.838;2023-02-10T14:21:09;102721.78;;;11.00;49.27
29371;BME280;16357;52.188;7.838;2023-02-10T14:23:39;102719.09;;;11.00;48.92
29371;BME280;16357;52.188;7.838;2023-02-10T14:26:13;102707.50;;;10.99;49.01
29371;BME280;16357;52.188;7.838;2023-02-10T14:28:42;102713.72;;;11.00;48.77
29371;BME280;16357;52.188;7.838;2023-02-10T14:31:17;102706.66;;;10.99;48.56
29371;BME280;16357;52.188;7.838;2023-02-10T14:33:58;102702.34;;;10.96;48.40
29371;BME280;16357;52.188;7.838;2023-02-10T14:36:26;102707.19;;;10.91;48.00
29371;BME280;16357;52.188;7.838;2023-02-10T14:38:58;102702.16;;;10.87;48.29
29371;BME280;16357;52.188;7.838;2023-02-10T14:41:31;102697.97;;;10.83;48.73
29371;BME280;16357;52.188;7.838;2023-02-10T14:43:58;102691.22;;;10.77;48.83
29371;BME280;16357;52.188;7.838;2023-02-10T14:46:28;102695.00;;;10.74;49.00
29371;BME280;16357;52.188;7.838;2023-02-10T14:49:01;102699.59;;;10.72;48.90
29371;BME280;16357;52.188;7.838;2023-02-10T14:51:29;102693.56;;;10.69;48.89
29371;BME280;16357;52.188;7.838;2023-02-10T14:54:20;102689.19;;;10.68;48.93
29371;BME280;16357;52.188;7.838;2023-02-10T14:56:53;102683.19;;;10.64;48.62
29371;BME280;16357;52.188;7.838;2023-02-10T14:59:26;102678.13;;;10.60;48.62
29371;BME280;16357;52.188;7.838;2023-02-10T15:02:07;102687.34;;;10.55;48.60
29371;BME280;16357;52.188;7.838;2023-02-10T15:04:46;102683.41;;;10.48;48.58
29371;BME280;16357;52.188;7.838;2023-02-10T15:07:21;102683.72;;;10.44;48.68
29371;BME280;16357;52.188;7.838;2023-02-10T15:09:49;102672.69;;;10.36;48.76